createdAt,value
2022-12-26T00:00:00.351Z,16.04
2022-12-26T00:02:26.959Z,16.07
2022-12-26T00:04:54.043Z,16.05
2022-12-26T00:07:20.767Z,16.03
2022-12-26T00:09:47.386Z,15.96
2022-12-26T00:12:14.250Z,15.93
2022-12-26T00:14:40.897Z,15.87
2022-12-26T00:17:07.482Z,15.89
2022-12-26T00:19:34.244Z,15.86
2022-12-26T00:22:00.876Z,15.89
2022-12-26T00:24:27.492Z,15.90
2022-12-26T00:26:54.047Z,15.90
2022-12-26T00:29:20.633Z,15.93
2022-12-26T00:31:47.322Z,15.94
2022-12-26T00:34:13.981Z,15.92
2022-12-26T00:36:40.544Z,15.92
2022-12-26T00:39:08.323Z,15.86
2022-12-26T00:41:34.939Z,15.82
2022-12-26T00:44:01.609Z,15.74
2022-12-26T00:46:28.474Z,15.63
2022-12-26T00:48:55.596Z,15.58
2022-12-26T00:51:22.233Z,15.57
2022-12-26T00:53:48.981Z,15.54
2022-12-26T00:56:15.949Z,15.55
2022-12-26T00:58:43.150Z,15.52
2022-12-26T01:01:14.650Z,15.49
2022-12-26T01:03:41.881Z,15.41
2022-12-26T01:06:08.562Z,15.37
2022-12-26T01:08:35.212Z,15.44
2022-12-26T01:11:08.997Z,15.35
2022-12-26T01:13:36.195Z,15.39
2022-12-26T01:16:03.272Z,15.43
2022-12-26T01:18:29.956Z,15.45
2022-12-26T01:21:05.040Z,15.45
2022-12-26T01:23:31.656Z,15.44
2022-12-26T01:26:15.771Z,15.29
2022-12-26T01:28:44.726Z,15.26
2022-12-26T01:31:11.296Z,15.32
2022-12-26T01:33:37.989Z,15.26
2022-12-26T01:36:04.704Z,15.26
2022-12-26T01:38:31.288Z,15.23
2022-12-26T01:41:16.487Z,15.24
2022-12-26T01:44:03.318Z,15.25
2022-12-26T01:46:40.860Z,15.25
2022-12-26T01:49:21.717Z,15.14
2022-12-26T01:51:51.388Z,15.09
2022-12-26T01:54:41.419Z,15.17
2022-12-26T01:57:09.583Z,15.09
2022-12-26T01:59:38.924Z,15.01
2022-12-26T02:02:05.836Z,15.01
2022-12-26T02:04:54.098Z,14.96
2022-12-26T02:07:21.341Z,14.95
2022-12-26T02:09:47.943Z,14.93
2022-12-26T02:12:34.407Z,14.85
2022-12-26T02:15:07.533Z,14.80
2022-12-26T02:17:34.081Z,14.84
2022-12-26T02:20:00.610Z,14.85
2022-12-26T02:22:42.307Z,15.00
2022-12-26T02:25:16.219Z,14.97
2022-12-26T02:27:57.777Z,15.06
2022-12-26T02:30:39.435Z,15.07
2022-12-26T02:33:08.766Z,15.04
2022-12-26T02:35:53.991Z,15.02
2022-12-26T02:38:39.174Z,15.06
2022-12-26T02:41:30.085Z,15.09
2022-12-26T02:44:22.756Z,15.13
2022-12-26T02:47:05.276Z,15.15
2022-12-26T02:50:09.385Z,15.18
2022-12-26T02:53:00.725Z,15.11
2022-12-26T02:55:47.933Z,15.09
2022-12-26T02:58:33.252Z,14.95
2022-12-26T03:01:22.245Z,14.92
2022-12-26T03:04:09.553Z,14.77
2022-12-26T03:07:01.061Z,14.86
2022-12-26T03:09:48.548Z,14.77
2022-12-26T03:12:37.009Z,14.69
2022-12-26T03:15:06.287Z,14.76
2022-12-26T03:17:38.773Z,14.80
2022-12-26T03:20:13.653Z,14.81
2022-12-26T03:22:43.631Z,14.82
2022-12-26T03:25:34.734Z,14.82
2022-12-26T03:28:01.521Z,14.79
2022-12-26T03:30:46.961Z,14.68
2022-12-26T03:33:32.321Z,14.64
2022-12-26T03:36:00.514Z,14.50
2022-12-26T03:38:51.463Z,14.60
2022-12-26T03:41:49.915Z,14.55
2022-12-26T03:44:53.652Z,14.50
2022-12-26T03:47:46.300Z,14.31
2022-12-26T03:50:41.148Z,14.36
2022-12-26T03:53:36.572Z,14.19
2022-12-26T03:56:57.323Z,14.25
2022-12-26T03:59:55.644Z,14.24
2022-12-26T04:02:41.151Z,14.21
2022-12-26T04:05:27.544Z,14.23
2022-12-26T04:08:18.709Z,14.13
2022-12-26T04:11:14.689Z,14.15
2022-12-26T04:14:15.444Z,14.17
2022-12-26T04:17:19.345Z,14.20
2022-12-26T04:19:49.077Z,14.20
2022-12-26T04:22:43.338Z,14.20
2022-12-26T04:25:50.840Z,14.21
2022-12-26T04:28:37.708Z,14.20
2022-12-26T04:31:28.286Z,14.16
2022-12-26T04:34:16.508Z,14.18
2022-12-26T04:37:18.977Z,14.09
2022-12-26T04:40:06.746Z,14.13
2022-12-26T04:42:52.871Z,14.14
2022-12-26T04:45:20.710Z,14.11
2022-12-26T04:48:06.012Z,14.10
2022-12-26T04:50:32.721Z,14.09
2022-12-26T04:53:00.946Z,14.10
2022-12-26T04:55:29.219Z,14.03
2022-12-26T04:57:55.816Z,14.02
2022-12-26T05:00:24.986Z,13.88
2022-12-26T05:03:14.677Z,13.88
2022-12-26T05:05:55.455Z,13.81
2022-12-26T05:08:45.080Z,13.91
2022-12-26T05:11:11.768Z,13.85
2022-12-26T05:13:38.338Z,13.78
2022-12-26T05:16:23.813Z,13.73
2022-12-26T05:19:09.177Z,13.68
2022-12-26T05:21:54.528Z,13.78
2022-12-26T05:24:40.019Z,13.61
2022-12-26T05:27:30.041Z,13.55
2022-12-26T05:29:56.835Z,13.29
2022-12-26T05:32:42.279Z,13.53
2022-12-26T05:35:09.091Z,13.62
2022-12-26T05:37:35.764Z,13.54
2022-12-26T05:40:02.440Z,13.57
2022-12-26T05:42:29.009Z,13.55
2022-12-26T05:44:55.595Z,13.55
2022-12-26T05:47:22.125Z,13.54
2022-12-26T05:49:48.735Z,13.43
2022-12-26T05:52:15.285Z,13.32
2022-12-26T05:54:41.928Z,13.35
2022-12-26T05:57:08.505Z,13.38
2022-12-26T05:59:35.190Z,13.41
2022-12-26T06:02:01.885Z,13.47
2022-12-26T06:04:30.110Z,13.39
2022-12-26T06:06:56.676Z,13.44
2022-12-26T06:09:23.754Z,13.38
2022-12-26T06:11:50.320Z,13.48
2022-12-26T06:14:17.215Z,13.55
2022-12-26T06:16:43.932Z,13.47
2022-12-26T06:19:10.661Z,13.49
2022-12-26T06:21:37.231Z,13.41
2022-12-26T06:24:03.872Z,13.31
2022-12-26T06:26:30.484Z,13.44
2022-12-26T06:28:57.221Z,13.37
2022-12-26T06:31:24.880Z,13.54
2022-12-26T06:33:54.220Z,13.60
2022-12-26T06:36:21.924Z,13.55
2022-12-26T06:38:49.059Z,13.51
2022-12-26T06:41:17.351Z,13.56
2022-12-26T06:43:44.520Z,13.63
2022-12-26T06:46:15.463Z,13.50
2022-12-26T06:48:42.395Z,13.42
2022-12-26T06:51:13.104Z,13.41
2022-12-26T06:53:39.897Z,13.42
2022-12-26T06:56:07.438Z,13.41
2022-12-26T06:58:34.065Z,13.29
2022-12-26T07:01:07.720Z,13.18
2022-12-26T07:03:35.000Z,13.22
2022-12-26T07:06:11.103Z,13.28
2022-12-26T07:08:37.718Z,13.29
2022-12-26T07:11:04.624Z,13.15
2022-12-26T07:13:31.287Z,12.99
2022-12-26T07:16:00.946Z,13.03
2022-12-26T07:18:27.860Z,12.92
2022-12-26T07:20:54.433Z,13.07
2022-12-26T07:23:21.054Z,13.04
2022-12-26T07:25:48.861Z,13.15
2022-12-26T07:28:16.044Z,13.19
2022-12-26T07:30:48.730Z,13.19
2022-12-26T07:33:15.328Z,13.25
2022-12-26T07:35:42.264Z,13.24
2022-12-26T07:38:09.009Z,13.29
2022-12-26T07:40:35.678Z,13.24
2022-12-26T07:43:02.275Z,13.22
2022-12-26T07:45:29.047Z,13.25
2022-12-26T07:47:56.741Z,13.21
2022-12-26T07:50:23.860Z,13.24
2022-12-26T07:52:50.485Z,13.28
2022-12-26T07:55:19.605Z,13.20
2022-12-26T07:57:49.930Z,13.21
2022-12-26T08:00:16.815Z,13.21
2022-12-26T08:02:43.549Z,13.26
2022-12-26T08:05:10.475Z,13.32
2022-12-26T08:07:37.978Z,13.44
2022-12-26T08:10:04.663Z,13.62
2022-12-26T08:12:32.542Z,13.55
2022-12-26T08:14:59.213Z,13.88
2022-12-26T08:17:27.073Z,13.90
2022-12-26T08:19:53.641Z,14.11
2022-12-26T08:22:20.235Z,14.22
2022-12-26T08:24:46.852Z,14.39
2022-12-26T08:27:13.438Z,14.54
2022-12-26T08:29:40.084Z,14.56
2022-12-26T08:32:06.619Z,14.72
2022-12-26T08:34:34.322Z,14.83
2022-12-26T08:37:00.951Z,14.90
2022-12-26T08:39:27.569Z,14.88
2022-12-26T08:41:54.151Z,14.93
2022-12-26T08:44:28.872Z,15.00
2022-12-26T08:46:55.858Z,15.02
2022-12-26T08:49:22.419Z,15.10
2022-12-26T08:51:49.011Z,15.11
2022-12-26T08:54:15.613Z,15.18
2022-12-26T08:56:42.302Z,15.25
2022-12-26T08:59:08.929Z,15.23
2022-12-26T09:01:35.793Z,15.22
2022-12-26T09:04:03.942Z,15.20
2022-12-26T09:06:34.467Z,15.41
2022-12-26T09:09:01.747Z,15.57
2022-12-26T09:11:28.764Z,15.57
2022-12-26T09:13:56.668Z,15.80
2022-12-26T09:16:24.797Z,15.66
2022-12-26T09:18:55.725Z,15.79
2022-12-26T09:21:22.508Z,15.87
2022-12-26T09:23:49.061Z,16.02
2022-12-26T09:26:19.590Z,16.08
2022-12-26T09:28:47.211Z,16.10
2022-12-26T09:31:15.592Z,15.99
2022-12-26T09:33:42.326Z,16.08
2022-12-26T09:36:15.061Z,15.99
2022-12-26T09:38:42.830Z,16.09
2022-12-26T09:41:18.241Z,16.11
2022-12-26T09:44:03.280Z,16.19
2022-12-26T09:46:41.960Z,16.04
2022-12-26T09:49:11.609Z,16.15
2022-12-26T09:51:40.147Z,16.24
2022-12-26T09:54:10.359Z,16.17
2022-12-26T09:59:27.081Z,16.35
2022-12-26T10:01:53.952Z,16.44
2022-12-26T10:04:28.986Z,16.55
2022-12-26T10:07:15.440Z,16.57
2022-12-26T10:10:00.744Z,16.72
2022-12-26T10:12:42.549Z,16.92
2022-12-26T10:15:28.152Z,16.99
2022-12-26T10:18:03.680Z,17.13
2022-12-26T10:20:48.805Z,17.31
2022-12-26T10:23:18.033Z,17.45
2022-12-26T10:26:13.883Z,17.59
2022-12-26T10:28:49.762Z,17.75
2022-12-26T10:31:22.992Z,17.90
2022-12-26T10:33:54.104Z,18.05
2022-12-26T10:36:32.692Z,18.09
2022-12-26T10:39:01.201Z,18.27
2022-12-26T10:41:33.566Z,18.39
2022-12-26T10:44:00.177Z,18.45
2022-12-26T10:46:44.306Z,18.52
2022-12-26T10:49:12.190Z,18.54
2022-12-26T10:51:39.217Z,18.63
2022-12-26T10:54:15.017Z,18.70
2022-12-26T10:56:41.849Z,18.74
2022-12-26T10:59:13.235Z,18.82
2022-12-26T11:01:47.258Z,18.89
2022-12-26T11:04:44.574Z,18.99
2022-12-26T11:07:11.518Z,19.09
2022-12-26T11:09:45.802Z,19.17
2022-12-26T11:12:36.919Z,19.24
2022-12-26T11:15:05.466Z,19.34
2022-12-26T11:17:34.041Z,19.39
2022-12-26T11:20:16.138Z,19.45
2022-12-26T11:22:43.406Z,19.47
2022-12-26T11:25:09.953Z,19.54
2022-12-26T11:27:37.560Z,19.64
2022-12-26T11:30:18.290Z,19.76
2022-12-26T11:32:47.277Z,19.85
2022-12-26T11:35:18.593Z,19.96
2022-12-26T11:37:46.585Z,20.04
2022-12-26T11:40:20.637Z,20.18
2022-12-26T11:42:55.399Z,20.30
2022-12-26T11:45:25.250Z,20.42
2022-12-26T11:47:53.186Z,20.52
2022-12-26T11:50:21.674Z,20.60
2022-12-26T11:52:57.425Z,20.69
2022-12-26T11:55:27.210Z,20.71
2022-12-26T11:58:06.528Z,20.79
2022-12-26T12:00:34.573Z,20.84
2022-12-26T12:03:01.644Z,20.92
2022-12-26T12:05:28.178Z,21.01
2022-12-26T12:07:54.786Z,21.05
2022-12-26T12:10:21.376Z,21.07
2022-12-26T12:12:52.698Z,21.12
2022-12-26T12:15:22.067Z,21.19
2022-12-26T12:18:12.925Z,21.25
2022-12-26T12:21:00.582Z,21.29
2022-12-26T12:23:27.711Z,21.32
2022-12-26T12:26:00.431Z,21.38
2022-12-26T12:28:45.666Z,21.40
2022-12-26T12:31:12.378Z,21.47
2022-12-26T12:33:42.108Z,21.49
2022-12-26T12:36:10.587Z,21.54
2022-12-26T12:38:44.452Z,21.53
2022-12-26T12:41:11.082Z,21.59
2022-12-26T12:43:38.286Z,21.62
2022-12-26T12:46:23.153Z,21.65
2022-12-26T12:48:59.464Z,21.66
2022-12-26T12:51:34.169Z,21.68
2022-12-26T12:54:19.548Z,21.67
2022-12-26T12:56:48.899Z,21.70
2022-12-26T12:59:18.248Z,21.69
2022-12-26T13:01:48.702Z,21.67
2022-12-26T13:04:23.145Z,21.66
2022-12-26T13:06:55.848Z,21.67
2022-12-26T13:09:32.694Z,21.68
2022-12-26T13:12:07.348Z,21.67
2022-12-26T13:14:42.340Z,21.67
2022-12-26T13:17:15.717Z,21.67
2022-12-26T13:20:03.392Z,21.69
2022-12-26T13:22:52.884Z,21.73
2022-12-26T13:25:20.077Z,21.77
2022-12-26T13:27:47.065Z,21.77
2022-12-26T13:30:15.660Z,21.76
2022-12-26T13:32:46.599Z,21.77
2022-12-26T13:35:32.122Z,21.75
2022-12-26T13:37:58.836Z,21.79
2022-12-26T13:40:30.041Z,21.79
2022-12-26T13:43:15.166Z,21.81
2022-12-26T13:45:41.840Z,21.81
2022-12-26T13:48:17.530Z,21.79
2022-12-26T13:50:55.692Z,21.82
2022-12-26T13:53:25.972Z,21.81
2022-12-26T13:55:54.574Z,21.81
2022-12-26T13:58:40.090Z,21.80
2022-12-26T14:01:19.842Z,21.77
2022-12-26T14:03:54.570Z,21.74
2022-12-26T14:06:36.089Z,21.78
2022-12-26T14:09:17.130Z,21.77
2022-12-26T14:12:02.164Z,21.79
2022-12-26T14:14:37.697Z,21.77
2022-12-26T14:17:26.896Z,21.76
2022-12-26T14:20:16.730Z,21.73
2022-12-26T14:22:43.549Z,21.74
2022-12-26T14:25:12.944Z,21.76
2022-12-26T14:28:03.109Z,21.74
2022-12-26T14:30:48.283Z,21.75
2022-12-26T14:33:41.178Z,21.77
2022-12-26T14:36:28.096Z,21.75
2022-12-26T14:39:13.639Z,21.75
2022-12-26T14:42:17.331Z,21.78
2022-12-26T14:44:44.372Z,21.74
2022-12-26T14:47:11.102Z,21.73
2022-12-26T14:49:41.672Z,21.72
2022-12-26T14:52:23.638Z,21.70
2022-12-26T14:54:51.710Z,21.68
2022-12-26T14:57:37.040Z,21.70
2022-12-26T15:00:14.705Z,21.66
2022-12-26T15:02:44.893Z,21.64
2022-12-26T15:05:16.188Z,21.62
2022-12-26T15:07:48.557Z,21.62
2022-12-26T15:10:35.472Z,21.58
2022-12-26T15:13:08.246Z,21.57
2022-12-26T15:15:53.327Z,21.55
2022-12-26T15:18:43.120Z,21.48
2022-12-26T15:21:30.480Z,21.48
2022-12-26T15:24:09.481Z,21.49
2022-12-26T15:26:48.193Z,21.44
2022-12-26T15:29:26.775Z,21.44
2022-12-26T15:31:56.176Z,21.43
2022-12-26T15:34:25.543Z,21.39
2022-12-26T15:37:02.376Z,21.37
2022-12-26T15:39:37.348Z,21.34
2022-12-26T15:42:22.218Z,21.31
2022-12-26T15:45:03.888Z,21.29
2022-12-26T15:47:45.689Z,21.25
2022-12-26T15:50:18.610Z,21.23
2022-12-26T15:53:20.498Z,21.20
2022-12-26T15:55:49.841Z,21.17
2022-12-26T15:58:30.014Z,21.14
2022-12-26T16:00:56.752Z,21.11
2022-12-26T16:03:32.383Z,21.08
2022-12-26T16:06:02.182Z,21.05
2022-12-26T16:08:47.042Z,21.03
2022-12-26T16:11:14.004Z,20.98
2022-12-26T16:13:53.053Z,20.95
2022-12-26T16:16:35.963Z,20.90
2022-12-26T16:19:19.289Z,20.84
2022-12-26T16:22:06.518Z,20.62
2022-12-26T16:24:34.204Z,20.21
2022-12-26T16:27:03.158Z,19.87
2022-12-26T16:29:30.771Z,19.76
2022-12-26T16:32:07.428Z,19.52
2022-12-26T16:34:35.787Z,19.16
2022-12-26T16:37:03.005Z,18.99
2022-12-26T16:39:29.552Z,18.85
2022-12-26T16:42:01.162Z,18.80
2022-12-26T16:44:30.701Z,18.77
2022-12-26T16:46:59.875Z,18.73
2022-12-26T16:49:27.484Z,18.50
2022-12-26T16:51:54.942Z,18.51
2022-12-26T16:54:21.495Z,18.42
2022-12-26T16:56:52.991Z,18.33
2022-12-26T16:59:31.431Z,18.32
2022-12-26T17:01:59.689Z,18.31
2022-12-26T17:04:28.239Z,18.28
2022-12-26T17:06:56.866Z,18.07
2022-12-26T17:09:24.553Z,17.91
2022-12-26T17:11:56.268Z,17.98
2022-12-26T17:14:25.967Z,17.82
2022-12-26T17:17:00.047Z,17.90
2022-12-26T17:19:31.804Z,17.84
2022-12-26T17:22:18.003Z,17.74
2022-12-26T17:24:45.457Z,17.70
2022-12-26T17:27:16.722Z,17.52
2022-12-26T17:29:47.290Z,17.49
2022-12-26T17:32:23.660Z,17.43
2022-12-26T17:34:50.340Z,17.38
2022-12-26T17:37:21.807Z,17.28
2022-12-26T17:39:52.658Z,17.32
2022-12-26T17:42:19.637Z,17.32
2022-12-26T17:44:46.262Z,17.27
2022-12-26T17:47:18.176Z,17.32
2022-12-26T17:49:44.802Z,17.34
2022-12-26T17:52:12.922Z,17.31
2022-12-26T17:54:39.873Z,17.31
2022-12-26T17:57:06.410Z,17.17
2022-12-26T17:59:33.044Z,17.20
2022-12-26T18:01:59.705Z,17.15
2022-12-26T18:04:26.376Z,17.08
2022-12-26T18:06:53.038Z,17.07
2022-12-26T18:09:26.945Z,17.08
2022-12-26T18:11:54.161Z,17.01
2022-12-26T18:14:20.750Z,17.01
2022-12-26T18:16:49.005Z,16.95
2022-12-26T18:19:16.462Z,17.01
2022-12-26T18:21:43.623Z,16.98
2022-12-26T18:24:10.205Z,16.97
2022-12-26T18:26:37.620Z,16.94
2022-12-26T18:29:04.239Z,16.99
2022-12-26T18:31:31.673Z,16.96
2022-12-26T18:33:58.319Z,16.98
2022-12-26T18:36:29.455Z,16.95
2022-12-26T18:38:56.053Z,16.95
2022-12-26T18:41:22.639Z,16.93
2022-12-26T18:43:49.253Z,16.91
2022-12-26T18:46:20.204Z,16.92
2022-12-26T18:48:46.904Z,16.94
2022-12-26T18:51:13.669Z,16.93
2022-12-26T18:53:40.336Z,16.93
2022-12-26T18:56:07.190Z,16.93
2022-12-26T18:58:33.857Z,16.89
2022-12-26T19:01:02.078Z,16.92
2022-12-26T19:03:28.708Z,16.90
2022-12-26T19:05:55.396Z,16.88
2022-12-26T19:08:22.152Z,16.84
2022-12-26T19:10:48.701Z,16.80
2022-12-26T19:13:15.434Z,16.82
2022-12-26T19:15:46.962Z,16.86
2022-12-26T19:18:13.699Z,16.84
2022-12-26T19:20:44.083Z,16.84
2022-12-26T19:23:11.315Z,16.86
2022-12-26T19:25:37.902Z,16.87
2022-12-26T19:28:04.516Z,16.87
2022-12-26T19:30:36.767Z,16.87
2022-12-26T19:33:05.248Z,16.86
2022-12-26T19:35:31.913Z,16.86
2022-12-26T19:37:58.791Z,16.89
2022-12-26T19:40:25.585Z,16.88
2022-12-26T19:42:52.446Z,16.90
2022-12-26T19:45:19.064Z,16.88
2022-12-26T19:47:45.746Z,16.90
2022-12-26T19:50:12.468Z,16.88
2022-12-26T19:52:40.738Z,16.89
2022-12-26T19:55:08.724Z,16.90
2022-12-26T19:57:35.325Z,16.92
2022-12-26T20:00:01.989Z,16.92
2022-12-26T20:02:38.931Z,16.94
2022-12-26T20:05:06.342Z,16.95
2022-12-26T20:07:34.641Z,16.97
2022-12-26T20:10:01.280Z,16.94
2022-12-26T20:12:27.809Z,16.92
2022-12-26T20:14:54.436Z,16.93
2022-12-26T20:17:21.139Z,16.92
2022-12-26T20:19:47.945Z,16.88
2022-12-26T20:22:14.491Z,16.81
2022-12-26T20:24:41.093Z,16.76
2022-12-26T20:27:07.652Z,16.72
2022-12-26T20:29:34.268Z,16.75
2022-12-26T20:32:00.888Z,16.76
2022-12-26T20:34:27.595Z,16.63
2022-12-26T20:36:54.154Z,16.57
2022-12-26T20:39:21.184Z,16.64
2022-12-26T20:41:47.724Z,16.64
2022-12-26T20:44:15.143Z,16.62
2022-12-26T20:46:42.213Z,16.65
2022-12-26T20:49:09.907Z,16.64
2022-12-26T20:51:38.464Z,16.65
2022-12-26T20:54:06.817Z,16.61
2022-12-26T20:56:33.759Z,16.57
2022-12-26T20:59:00.468Z,16.58
2022-12-26T21:01:27.875Z,16.57
2022-12-26T21:03:55.129Z,16.55
2022-12-26T21:06:23.105Z,16.54
2022-12-26T21:08:50.920Z,16.50
2022-12-26T21:11:19.088Z,16.56
2022-12-26T21:13:46.220Z,16.51
2022-12-26T21:16:12.814Z,16.51
2022-12-26T21:18:40.077Z,16.50
2022-12-26T21:21:11.396Z,16.47
2022-12-26T21:23:38.487Z,16.46
2022-12-26T21:26:05.570Z,16.42
2022-12-26T21:28:32.883Z,16.37
2022-12-26T21:30:59.762Z,16.30
2022-12-26T21:33:26.409Z,16.27
2022-12-26T21:35:53.426Z,16.26
2022-12-26T21:38:21.455Z,16.22
2022-12-26T21:40:48.733Z,16.19
2022-12-26T21:43:15.873Z,16.15
2022-12-26T21:45:42.669Z,16.15
2022-12-26T21:48:09.646Z,16.15
2022-12-26T21:50:36.238Z,16.09
2022-12-26T21:53:03.377Z,16.06
2022-12-26T21:55:31.195Z,15.97
2022-12-26T21:57:59.576Z,15.93
2022-12-26T22:00:26.404Z,15.90
2022-12-26T22:03:11.469Z,15.84
2022-12-26T22:05:39.322Z,15.72
2022-12-26T22:08:11.241Z,15.68
2022-12-26T22:10:57.501Z,15.63
2022-12-26T22:13:25.897Z,15.57
2022-12-26T22:16:09.029Z,15.57
2022-12-26T22:18:35.935Z,15.55
2022-12-26T22:21:06.838Z,15.53
2022-12-26T22:23:33.586Z,15.40
2022-12-26T22:26:00.871Z,15.44
2022-12-26T22:28:29.415Z,15.28
2022-12-26T22:30:56.806Z,15.33
2022-12-26T22:33:23.573Z,15.21
2022-12-26T22:35:50.606Z,15.27
2022-12-26T22:38:17.345Z,15.29
2022-12-26T22:40:54.840Z,15.31
2022-12-26T22:43:21.538Z,15.27
2022-12-26T22:45:48.173Z,15.15
2022-12-26T22:48:24.649Z,15.11
2022-12-26T22:50:54.221Z,15.12
2022-12-26T22:53:27.401Z,15.13
2022-12-26T22:56:00.647Z,15.06
2022-12-26T22:58:27.742Z,14.78
2022-12-26T23:00:54.287Z,14.62
2022-12-26T23:03:21.459Z,14.57
2022-12-26T23:05:48.541Z,14.49
2022-12-26T23:08:33.457Z,14.52
2022-12-26T23:11:00.209Z,14.41
2022-12-26T23:13:26.931Z,14.32
2022-12-26T23:16:02.916Z,14.37
2022-12-26T23:18:53.457Z,14.31
2022-12-26T23:21:44.956Z,14.11
2022-12-26T23:24:11.788Z,14.19
2022-12-26T23:26:38.964Z,14.17
2022-12-26T23:29:24.558Z,14.21
2022-12-26T23:31:51.248Z,14.27
2022-12-26T23:34:18.075Z,14.27
2022-12-26T23:36:44.694Z,14.22
2022-12-26T23:39:11.273Z,14.29
2022-12-26T23:41:37.869Z,14.32
2022-12-26T23:44:04.543Z,14.28
2022-12-26T23:46:31.214Z,14.30
2022-12-26T23:48:57.847Z,14.27
2022-12-26T23:51:24.618Z,14.17
2022-12-26T23:53:51.144Z,14.05
2022-12-26T23:56:17.763Z,13.90
2022-12-26T23:58:44.628Z,13.95
